Tuesday, October 23, 2018, 8:41 PM EDT
Back to Local

KBDR, Sikorsky Memorial Airport

Location: Stratford, CT, United States Lat: 41.167
Local Time: 8:41 PM EDT ( 0:41 GMT) Lon: -73.133
Time Zone: US/Eastern Elev: 9 ft

Show me the last for .
Show Decoded

2018-10-23 19:52 METAR KBDR 232352Z 29008KT 10SM FEW110 11/06 A2994 RMK AO2 LTG DSNT SE AND S
                 RAE25 SLP138 P0001 60001 T01110061 10178 20111 53015 =
2018-10-23 19:10 METAR KBDR 232310Z 30013G22KT 10SM -RA BKN060 OVC075 12/07 A2994 RMK AO2 LTG
                 DSNT E TS S MOV E P0001 T01170067 =
2018-10-23 18:52 METAR KBDR 232252Z 32014G21KT 10SM VCTS -RA OVC060 12/07 A2992 RMK AO2 PK WND
                 30035/2233 RAB20 SLP131 TS S MOVG E P0000 T01170067 =
2018-10-23 17:52 METAR KBDR 232152Z 23008KT 10SM SCT090 BKN120 17/06 A2989 RMK AO2 SLP123
                 T01670061 =
2018-10-23 16:52 METAR KBDR 232052Z 23010KT 10SM CLR 17/06 A2990 RMK AO2 SLP123 T01720056 56014 =
2018-10-23 15:52 METAR KBDR 231952Z 22011KT 10SM CLR 17/06 A2990 RMK AO2 SLP126 T01720056 =
2018-10-23 14:52 METAR KBDR 231852Z 23009KT 10SM CLR 17/07 A2991 RMK AO2 SLP129 T01720067 =
2018-10-23 13:52 METAR KBDR 231752Z 21006KT 10SM SCT080 OVC090 16/09 A2993 RMK AO2 SLP136
                 T01610089 10167 20128 58036 =
2018-10-23 12:52 METAR KBDR 231652Z 22007KT 10SM SCT090 16/08 A2997 RMK AO2 SLP149 T01610083 =
2018-10-23 11:52 METAR KBDR 231552Z 21005KT 10SM FEW035 BKN090 15/08 A3001 RMK AO2 SLP163
                 T01500078 =
2018-10-23 10:52 METAR KBDR 231452Z 21008KT 10SM OVC039 15/08 A3004 RMK AO2 SLP172 T01500078
                 58013 =
2018-10-23 09:52 METAR KBDR 231352Z 19008KT 10SM BKN041 OVC100 14/07 A3006 RMK AO2 SLP180
                 T01440072 =
2018-10-23 08:52 METAR KBDR 231252Z 17009KT 10SM BKN080 OVC100 14/07 A3008 RMK AO2 SLP185
                 T01390067 =
2018-10-23 07:52 METAR KBDR 231152Z 17009KT 10SM BKN090 OVC100 13/07 A3008 RMK AO2 SLP185
                 T01280067 10128 20078 56015 =
2018-10-23 06:52 METAR KBDR 231052Z 00000KT 10SM OVC100 09/06 A3009 RMK AO2 SLP188 T00890061 =
2018-10-23 05:52 METAR KBDR 230952Z AUTO 00000KT 10SM OVC100 08/06 A3011 RMK AO2 SLP194 T00830056
                 =
2018-10-23 04:52 METAR KBDR 230852Z AUTO 00000KT 10SM OVC100 08/06 A3012 RMK AO2 SLP200 T00780056
                 56014 =
2018-10-23 03:52 METAR KBDR 230752Z AUTO 03004KT 10SM FEW075 OVC090 08/05 A3013 RMK AO2 SLP203
                 T00830050 =
2018-10-23 02:52 METAR KBDR 230652Z AUTO 00000KT 10SM OVC090 08/05 A3015 RMK AO2 SLP209 T00830050
                 =
2018-10-23 01:52 METAR KBDR 230552Z AUTO 00000KT 10SM OVC080 08/04 A3016 RMK AO2 SLP214 T00780039
                 10111 20061 58006 =
2018-10-23 00:52 METAR KBDR 230452Z AUTO 00000KT 10SM OVC080 07/04 A3018 RMK AO2 SLP218 T00720039
                 401110011 =
2018-10-22 23:52 METAR KBDR 230352Z AUTO 00000KT 10SM OVC080 07/03 A3018 RMK AO2 SLP218 T00670033
                 =
2018-10-22 22:52 METAR KBDR 230252Z AUTO 34003KT 10SM BKN080 08/03 A3018 RMK AO2 SLP219 T00780028
                 50000 =
2018-10-22 21:52 METAR KBDR 230152Z 23009KT 10SM CLR 11/01 A3018 RMK AO2 SLP219 T01110011 =
2018-10-22 20:52 METAR KBDR 230052Z 21010KT 10SM SCT085 11/03 A3018 RMK AO2 SLP221 T01060028 =

Support USWX by starting your Amazon purchase here.